sensor_id;sensor_type;location;lat;lon;timestamp;pressure;altitude;pressure_sealevel;temperature;humidity
18988;BME280;5494;51.796;10.952;2023-02-01T00:01:20;98817.97;;;5.08;85.71
18988;BME280;5494;51.796;10.952;2023-02-01T00:03:48;98858.53;;;5.02;86.10
18988;BME280;5494;51.796;10.952;2023-02-01T00:06:16;98819.97;;;4.99;86.31
18988;BME280;5494;51.796;10.952;2023-02-01T00:08:52;98819.09;;;5.00;86.03
18988;BME280;5494;51.796;10.952;2023-02-01T00:11:23;98842.31;;;4.98;86.90
18988;BME280;5494;51.796;10.952;2023-02-01T00:13:51;98835.44;;;4.99;87.09
18988;BME280;5494;51.796;10.952;2023-02-01T00:16:23;98817.31;;;5.02;86.14
18988;BME280;5494;51.796;10.952;2023-02-01T00:18:57;98839.69;;;5.00;87.04
18988;BME280;5494;51.796;10.952;2023-02-01T00:21:25;98828.63;;;4.98;86.62
18988;BME280;5494;51.796;10.952;2023-02-01T00:23:53;98823.78;;;4.87;87.26
18988;BME280;5494;51.796;10.952;2023-02-01T00:26:31;98827.91;;;4.93;87.75
18988;BME280;5494;51.796;10.952;2023-02-01T00:29:00;98827.16;;;4.89;87.44
18988;BME280;5494;51.796;10.952;2023-02-01T00:31:28;98818.38;;;4.96;87.60
18988;BME280;5494;51.796;10.952;2023-02-01T00:33:56;98808.72;;;5.03;87.09
18988;BME280;5494;51.796;10.952;2023-02-01T00:36:24;98832.16;;;4.94;88.01
18988;BME280;5494;51.796;10.952;2023-02-01T00:38:52;98806.44;;;4.92;88.40
18988;BME280;5494;51.796;10.952;2023-02-01T00:41:22;98825.13;;;4.99;88.22
18988;BME280;5494;51.796;10.952;2023-02-01T00:43:52;98812.25;;;4.99;88.19
18988;BME280;5494;51.796;10.952;2023-02-01T00:46:20;98829.41;;;5.00;87.56
18988;BME280;5494;51.796;10.952;2023-02-01T00:48:49;98829.41;;;5.00;87.96
18988;BME280;5494;51.796;10.952;2023-02-01T00:51:23;98820.13;;;4.94;88.13
18988;BME280;5494;51.796;10.952;2023-02-01T00:53:52;98817.41;;;4.99;88.81
18988;BME280;5494;51.796;10.952;2023-02-01T00:56:20;98809.00;;;4.94;88.71
18988;BME280;5494;51.796;10.952;2023-02-01T00:58:50;98808.13;;;4.93;88.69
18988;BME280;5494;51.796;10.952;2023-02-01T01:01:21;98808.91;;;4.97;88.09
18988;BME280;5494;51.796;10.952;2023-02-01T01:03:52;98810.47;;;5.01;88.06
18988;BME280;5494;51.796;10.952;2023-02-01T01:06:22;98797.75;;;4.96;88.09
18988;BME280;5494;51.796;10.952;2023-02-01T01:08:52;98804.50;;;5.00;88.45
18988;BME280;5494;51.796;10.952;2023-02-01T01:11:23;98808.78;;;5.00;88.16
18988;BME280;5494;51.796;10.952;2023-02-01T01:13:54;98803.16;;;4.89;89.14
18988;BME280;5494;51.796;10.952;2023-02-01T01:16:24;98805.59;;;4.92;89.03
18988;BME280;5494;51.796;10.952;2023-02-01T01:18:55;98800.56;;;4.89;88.86
18988;BME280;5494;51.796;10.952;2023-02-01T01:21:24;98811.06;;;4.83;89.13
18988;BME280;5494;51.796;10.952;2023-02-01T01:23:52;98800.66;;;4.86;89.46
18988;BME280;5494;51.796;10.952;2023-02-01T01:26:22;98796.91;;;4.96;88.38
18988;BME280;5494;51.796;10.952;2023-02-01T01:28:54;98795.63;;;4.83;88.09
18988;BME280;5494;51.796;10.952;2023-02-01T01:31:23;98795.63;;;4.83;88.77
18988;BME280;5494;51.796;10.952;2023-02-01T01:33:54;98795.63;;;4.83;88.41
18988;BME280;5494;51.796;10.952;2023-02-01T01:36:23;98795.63;;;4.83;87.75
18988;BME280;5494;51.796;10.952;2023-02-01T01:38:52;98784.47;;;4.82;87.49
18988;BME280;5494;51.796;10.952;2023-02-01T01:41:22;98773.16;;;4.86;87.66
18988;BME280;5494;51.796;10.952;2023-02-01T01:43:57;98768.31;;;4.77;88.35
18988;BME280;5494;51.796;10.952;2023-02-01T01:46:30;98776.75;;;4.82;88.05
18988;BME280;5494;51.796;10.952;2023-02-01T01:49:05;98774.13;;;4.84;87.87
18988;BME280;5494;51.796;10.952;2023-02-01T01:51:40;98778.28;;;4.88;86.98
18988;BME280;5494;51.796;10.952;2023-02-01T01:54:15;98785.00;;;4.92;87.44
18988;BME280;5494;51.796;10.952;2023-02-01T01:56:53;98768.81;;;4.88;87.69
18988;BME280;5494;51.796;10.952;2023-02-01T01:59:25;98778.00;;;4.97;87.29
18988;BME280;5494;51.796;10.952;2023-02-01T02:01:55;98773.81;;;4.93;87.09
18988;BME280;5494;51.796;10.952;2023-02-01T02:04:24;98763.56;;;4.91;87.44
18988;BME280;5494;51.796;10.952;2023-02-01T02:07:00;98749.66;;;4.97;87.02
18988;BME280;5494;51.796;10.952;2023-02-01T02:09:29;98765.00;;;5.00;86.60
18988;BME280;5494;51.796;10.952;2023-02-01T02:11:58;98768.59;;;4.96;87.46
18988;BME280;5494;51.796;10.952;2023-02-01T02:14:28;98765.06;;;4.98;87.53
18988;BME280;5494;51.796;10.952;2023-02-01T02:17:18;98760.16;;;4.91;88.14
18988;BME280;5494;51.796;10.952;2023-02-01T02:20:45;98763.63;;;4.90;87.66
18988;BME280;5494;51.796;10.952;2023-02-01T02:23:43;98764.56;;;4.87;88.42
18988;BME280;5494;51.796;10.952;2023-02-01T02:26:57;98761.25;;;4.84;88.06
18988;BME280;5494;51.796;10.952;2023-02-01T02:30:14;98763.91;;;4.81;89.38
18988;BME280;5494;51.796;10.952;2023-02-01T02:33:38;98754.34;;;4.84;88.77
18988;BME280;5494;51.796;10.952;2023-02-01T02:36:18;98760.50;;;4.80;89.39
18988;BME280;5494;51.796;10.952;2023-02-01T02:38:54;98745.50;;;4.93;88.48
18988;BME280;5494;51.796;10.952;2023-02-01T02:41:31;98768.88;;;4.87;88.53
18988;BME280;5494;51.796;10.952;2023-02-01T02:44:27;98764.59;;;4.86;88.46
18988;BME280;5494;51.796;10.952;2023-02-01T02:47:25;98744.19;;;4.80;89.35
18988;BME280;5494;51.796;10.952;2023-02-01T02:50:08;98754.50;;;4.80;89.31
18988;BME280;5494;51.796;10.952;2023-02-01T02:53:02;98747.81;;;4.74;89.23
18988;BME280;5494;51.796;10.952;2023-02-01T02:55:51;98742.16;;;4.63;89.79
18988;BME280;5494;51.796;10.952;2023-02-01T02:58:33;98736.06;;;4.65;89.69
18988;BME280;5494;51.796;10.952;2023-02-01T03:01:19;98740.09;;;4.74;90.14
18988;BME280;5494;51.796;10.952;2023-02-01T03:04:05;98735.00;;;4.71;88.96
18988;BME280;5494;51.796;10.952;2023-02-01T03:06:39;98728.34;;;4.92;87.88
18988;BME280;5494;51.796;10.952;2023-02-01T03:09:15;98718.06;;;4.64;89.30
18988;BME280;5494;51.796;10.952;2023-02-01T03:11:49;98730.34;;;4.84;89.10
18988;BME280;5494;51.796;10.952;2023-02-01T03:14:44;98729.78;;;4.74;88.54
18988;BME280;5494;51.796;10.952;2023-02-01T03:17:21;98724.59;;;4.75;88.48
18988;BME280;5494;51.796;10.952;2023-02-01T03:19:55;98716.69;;;4.82;88.88
18988;BME280;5494;51.796;10.952;2023-02-01T03:22:28;98721.19;;;5.01;88.60
18988;BME280;5494;51.796;10.952;2023-02-01T03:25:03;98718.25;;;4.86;88.27
18988;BME280;5494;51.796;10.952;2023-02-01T03:27:41;98709.75;;;4.84;89.46
18988;BME280;5494;51.796;10.952;2023-02-01T03:30:18;98697.00;;;4.79;90.06
18988;BME280;5494;51.796;10.952;2023-02-01T03:32:51;98695.78;;;4.91;89.74
18988;BME280;5494;51.796;10.952;2023-02-01T03:35:40;98686.47;;;4.87;90.32
18988;BME280;5494;51.796;10.952;2023-02-01T03:38:23;98694.09;;;4.90;90.80
18988;BME280;5494;51.796;10.952;2023-02-01T03:41:00;98697.06;;;5.04;90.34
18988;BME280;5494;51.796;10.952;2023-02-01T03:43:38;98703.00;;;5.06;90.68
18988;BME280;5494;51.796;10.952;2023-02-01T03:46:17;98698.34;;;5.17;88.97
18988;BME280;5494;51.796;10.952;2023-02-01T03:48:50;98693.88;;;5.22;88.73
18988;BME280;5494;51.796;10.952;2023-02-01T03:51:21;98694.53;;;5.27;88.61
18988;BME280;5494;51.796;10.952;2023-02-01T03:53:52;98692.19;;;5.21;87.80
18988;BME280;5494;51.796;10.952;2023-02-01T03:56:23;98681.28;;;5.13;88.04
18988;BME280;5494;51.796;10.952;2023-02-01T03:58:53;98686.56;;;5.10;87.76
18988;BME280;5494;51.796;10.952;2023-02-01T04:01:32;98694.25;;;5.11;87.88
18988;BME280;5494;51.796;10.952;2023-02-01T04:04:00;98685.72;;;5.34;88.81
18988;BME280;5494;51.796;10.952;2023-02-01T04:06:29;98676.47;;;5.29;88.96
18988;BME280;5494;51.796;10.952;2023-02-01T04:09:02;98686.44;;;5.13;89.80
18988;BME280;5494;51.796;10.952;2023-02-01T04:11:30;98684.56;;;5.43;88.73
18988;BME280;5494;51.796;10.952;2023-02-01T04:13:58;98689.94;;;5.37;89.05
18988;BME280;5494;51.796;10.952;2023-02-01T04:16:31;98681.94;;;5.44;88.89
18988;BME280;5494;51.796;10.952;2023-02-01T04:18:59;98669.16;;;5.41;89.75
18988;BME280;5494;51.796;10.952;2023-02-01T04:21:28;98664.53;;;5.51;89.61
18988;BME280;5494;51.796;10.952;2023-02-01T04:23:56;98653.16;;;5.07;91.75
18988;BME280;5494;51.796;10.952;2023-02-01T04:26:25;98654.41;;;5.20;92.68
18988;BME280;5494;51.796;10.952;2023-02-01T04:28:53;98658.25;;;5.08;92.29
18988;BME280;5494;51.796;10.952;2023-02-01T04:31:21;98647.84;;;5.36;92.51
18988;BME280;5494;51.796;10.952;2023-02-01T04:33:53;98647.31;;;5.27;91.52
18988;BME280;5494;51.796;10.952;2023-02-01T04:36:22;98650.78;;;5.01;95.94
18988;BME280;5494;51.796;10.952;2023-02-01T04:38:50;98644.47;;;4.85;98.69
18988;BME280;5494;51.796;10.952;2023-02-01T04:41:19;98643.69;;;4.83;100.00
18988;BME280;5494;51.796;10.952;2023-02-01T04:43:50;98642.88;;;4.81;100.00
18988;BME280;5494;51.796;10.952;2023-02-01T04:46:18;98636.09;;;4.78;100.00
18988;BME280;5494;51.796;10.952;2023-02-01T04:48:46;98638.09;;;4.70;100.00
18988;BME280;5494;51.796;10.952;2023-02-01T04:51:14;98639.25;;;4.86;100.00
18988;BME280;5494;51.796;10.952;2023-02-01T04:53:42;98638.50;;;5.09;100.00
18988;BME280;5494;51.796;10.952;2023-02-01T04:56:10;98640.81;;;4.65;100.00
18988;BME280;5494;51.796;10.952;2023-02-01T04:58:38;98630.66;;;5.12;100.00
18988;BME280;5494;51.796;10.952;2023-02-01T05:01:07;98638.84;;;4.98;100.00
18988;BME280;5494;51.796;10.952;2023-02-01T05:03:35;98635.81;;;4.87;100.00
18988;BME280;5494;51.796;10.952;2023-02-01T05:06:04;98626.44;;;4.85;100.00
18988;BME280;5494;51.796;10.952;2023-02-01T05:08:33;98614.53;;;4.82;100.00
18988;BME280;5494;51.796;10.952;2023-02-01T05:11:04;98623.97;;;4.82;100.00
18988;BME280;5494;51.796;10.952;2023-02-01T05:13:32;98609.47;;;4.79;100.00
18988;BME280;5494;51.796;10.952;2023-02-01T05:16:16;98591.69;;;4.71;100.00
18988;BME280;5494;51.796;10.952;2023-02-01T05:18:44;98608.94;;;4.69;100.00
18988;BME280;5494;51.796;10.952;2023-02-01T05:21:15;98598.91;;;4.62;100.00
18988;BME280;5494;51.796;10.952;2023-02-01T05:23:43;98608.03;;;4.70;100.00
18988;BME280;5494;51.796;10.952;2023-02-01T05:26:29;98601.34;;;4.65;100.00
18988;BME280;5494;51.796;10.952;2023-02-01T05:28:57;98586.88;;;4.62;100.00
18988;BME280;5494;51.796;10.952;2023-02-01T05:31:26;98581.09;;;4.81;100.00
18988;BME280;5494;51.796;10.952;2023-02-01T05:33:54;98579.53;;;4.77;99.55
18988;BME280;5494;51.796;10.952;2023-02-01T05:36:22;98567.53;;;4.75;98.89
18988;BME280;5494;51.796;10.952;2023-02-01T05:38:50;98562.63;;;4.69;99.17
18988;BME280;5494;51.796;10.952;2023-02-01T05:41:18;98558.66;;;4.84;97.15
18988;BME280;5494;51.796;10.952;2023-02-01T05:43:46;98561.94;;;4.89;96.23
18988;BME280;5494;51.796;10.952;2023-02-01T05:46:15;98553.34;;;4.89;96.04
18988;BME280;5494;51.796;10.952;2023-02-01T05:48:44;98553.94;;;4.97;94.51
18988;BME280;5494;51.796;10.952;2023-02-01T05:51:13;98554.91;;;4.93;94.82
18988;BME280;5494;51.796;10.952;2023-02-01T05:53:41;98551.28;;;4.98;94.36
18988;BME280;5494;51.796;10.952;2023-02-01T05:56:09;98552.88;;;5.02;94.48
18988;BME280;5494;51.796;10.952;2023-02-01T05:58:37;98552.00;;;5.03;95.29
18988;BME280;5494;51.796;10.952;2023-02-01T06:01:05;98552.69;;;5.07;95.93
18988;BME280;5494;51.796;10.952;2023-02-01T06:03:33;98546.50;;;5.12;96.15
18988;BME280;5494;51.796;10.952;2023-02-01T06:06:03;98520.59;;;5.17;96.57
18988;BME280;5494;51.796;10.952;2023-02-01T06:08:31;98527.28;;;5.21;96.44
18988;BME280;5494;51.796;10.952;2023-02-01T06:10:59;98532.56;;;5.18;96.60
18988;BME280;5494;51.796;10.952;2023-02-01T06:13:27;98519.88;;;5.12;96.75
18988;BME280;5494;51.796;10.952;2023-02-01T06:15:57;98525.00;;;5.13;97.37
18988;BME280;5494;51.796;10.952;2023-02-01T06:18:25;98528.41;;;5.14;98.08
18988;BME280;5494;51.796;10.952;2023-02-01T06:20:54;98523.47;;;5.08;96.93
18988;BME280;5494;51.796;10.952;2023-02-01T06:23:24;98534.41;;;5.14;96.30
18988;BME280;5494;51.796;10.952;2023-02-01T06:25:57;98523.03;;;5.20;96.43
18988;BME280;5494;51.796;10.952;2023-02-01T06:28:26;98518.66;;;5.22;96.66
18988;BME280;5494;51.796;10.952;2023-02-01T06:30:54;98531.31;;;5.28;96.85
18988;BME280;5494;51.796;10.952;2023-02-01T06:33:25;98530.47;;;5.28;96.86
18988;BME280;5494;51.796;10.952;2023-02-01T06:35:57;98518.44;;;5.28;97.02
18988;BME280;5494;51.796;10.952;2023-02-01T06:38:27;98519.28;;;5.29;96.97
18988;BME280;5494;51.796;10.952;2023-02-01T06:40:57;98537.94;;;5.35;96.65
18988;BME280;5494;51.796;10.952;2023-02-01T06:43:27;98537.59;;;5.44;96.19
18988;BME280;5494;51.796;10.952;2023-02-01T06:46:00;98536.28;;;5.56;95.38
18988;BME280;5494;51.796;10.952;2023-02-01T06:48:29;98531.16;;;5.09;97.29
18988;BME280;5494;51.796;10.952;2023-02-01T06:50:58;98530.63;;;5.00;98.60
18988;BME280;5494;51.796;10.952;2023-02-01T06:53:28;98524.63;;;4.99;99.41
18988;BME280;5494;51.796;10.952;2023-02-01T06:55:58;98530.50;;;5.04;99.46
18988;BME280;5494;51.796;10.952;2023-02-01T06:58:29;98541.94;;;4.96;100.00
18988;BME280;5494;51.796;10.952;2023-02-01T07:00:58;98535.78;;;5.00;100.00
18988;BME280;5494;51.796;10.952;2023-02-01T07:03:32;98528.31;;;4.92;100.00
18988;BME280;5494;51.796;10.952;2023-02-01T07:06:00;98526.31;;;5.25;99.26
18988;BME280;5494;51.796;10.952;2023-02-01T07:08:30;98535.22;;;4.92;100.00
18988;BME280;5494;51.796;10.952;2023-02-01T07:11:02;98513.06;;;5.11;100.00
18988;BME280;5494;51.796;10.952;2023-02-01T07:13:30;98522.94;;;4.98;100.00
18988;BME280;5494;51.796;10.952;2023-02-01T07:15:59;98499.63;;;5.03;100.00
18988;BME280;5494;51.796;10.952;2023-02-01T07:18:28;98519.97;;;4.86;100.00
18988;BME280;5494;51.796;10.952;2023-02-01T07:20:57;98520.50;;;4.95;100.00
18988;BME280;5494;51.796;10.952;2023-02-01T07:23:26;98505.94;;;4.94;100.00
18988;BME280;5494;51.796;10.952;2023-02-01T07:25:57;98523.97;;;4.94;100.00
18988;BME280;5494;51.796;10.952;2023-02-01T07:28:28;98531.44;;;5.02;100.00
18988;BME280;5494;51.796;10.952;2023-02-01T07:31:03;98537.78;;;4.92;100.00
18988;BME280;5494;51.796;10.952;2023-02-01T07:33:32;98533.34;;;4.97;100.00
18988;BME280;5494;51.796;10.952;2023-02-01T07:36:02;98554.28;;;4.86;100.00
18988;BME280;5494;51.796;10.952;2023-02-01T07:38:31;98544.13;;;4.83;100.00
18988;BME280;5494;51.796;10.952;2023-02-01T07:41:02;98547.59;;;4.82;100.00
18988;BME280;5494;51.796;10.952;2023-02-01T07:43:32;98546.91;;;4.77;100.00
18988;BME280;5494;51.796;10.952;2023-02-01T07:46:01;98558.41;;;4.67;100.00
18988;BME280;5494;51.796;10.952;2023-02-01T07:48:31;98558.47;;;4.64;100.00
18988;BME280;5494;51.796;10.952;2023-02-01T07:51:02;98549.25;;;4.58;100.00
18988;BME280;5494;51.796;10.952;2023-02-01T07:53:33;98508.28;;;4.52;100.00
18988;BME280;5494;51.796;10.952;2023-02-01T07:56:04;98552.81;;;4.54;100.00
18988;BME280;5494;51.796;10.952;2023-02-01T07:58:32;98562.47;;;4.48;100.00
18988;BME280;5494;51.796;10.952;2023-02-01T08:01:00;98545.91;;;4.56;100.00
18988;BME280;5494;51.796;10.952;2023-02-01T08:03:46;98544.00;;;4.61;100.00
18988;BME280;5494;51.796;10.952;2023-02-01T08:06:14;98558.66;;;4.59;100.00
18988;BME280;5494;51.796;10.952;2023-02-01T08:08:43;98536.75;;;4.72;100.00
18988;BME280;5494;51.796;10.952;2023-02-01T08:11:13;98566.44;;;4.83;100.00
18988;BME280;5494;51.796;10.952;2023-02-01T08:13:42;98568.31;;;4.78;100.00
18988;BME280;5494;51.796;10.952;2023-02-01T08:16:12;98577.72;;;4.79;100.00
18988;BME280;5494;51.796;10.952;2023-02-01T08:18:41;98577.41;;;4.88;100.00
18988;BME280;5494;51.796;10.952;2023-02-01T08:21:12;98588.81;;;4.81;100.00
18988;BME280;5494;51.796;10.952;2023-02-01T08:23:44;98590.81;;;4.72;100.00
18988;BME280;5494;51.796;10.952;2023-02-01T08:26:16;98582.38;;;4.69;100.00
18988;BME280;5494;51.796;10.952;2023-02-01T08:28:49;98578.56;;;4.54;100.00
18988;BME280;5494;51.796;10.952;2023-02-01T08:31:19;98589.91;;;4.49;100.00
18988;BME280;5494;51.796;10.952;2023-02-01T08:33:52;98575.34;;;4.48;100.00
18988;BME280;5494;51.796;10.952;2023-02-01T08:36:22;98566.66;;;4.50;100.00
18988;BME280;5494;51.796;10.952;2023-02-01T08:38:50;98576.63;;;4.61;100.00
18988;BME280;5494;51.796;10.952;2023-02-01T08:41:22;98574.47;;;4.73;100.00
18988;BME280;5494;51.796;10.952;2023-02-01T08:43:51;98576.78;;;5.06;100.00
18988;BME280;5494;51.796;10.952;2023-02-01T08:46:21;98572.31;;;5.34;100.00
18988;BME280;5494;51.796;10.952;2023-02-01T08:48:49;98570.63;;;5.80;100.00
18988;BME280;5494;51.796;10.952;2023-02-01T08:51:21;98561.88;;;6.07;100.00
18988;BME280;5494;51.796;10.952;2023-02-01T08:53:49;98590.53;;;6.00;98.18
18988;BME280;5494;51.796;10.952;2023-02-01T08:56:20;98555.06;;;6.26;94.30
18988;BME280;5494;51.796;10.952;2023-02-01T08:58:48;98584.09;;;6.31;92.81
18988;BME280;5494;51.796;10.952;2023-02-01T09:01:17;98585.84;;;6.31;92.52
18988;BME280;5494;51.796;10.952;2023-02-01T09:03:45;98579.00;;;6.72;89.49
18988;BME280;5494;51.796;10.952;2023-02-01T09:06:14;98585.22;;;6.88;87.02
18988;BME280;5494;51.796;10.952;2023-02-01T09:08:43;98575.25;;;6.79;84.98
18988;BME280;5494;51.796;10.952;2023-02-01T09:11:16;98577.00;;;6.79;84.66
18988;BME280;5494;51.796;10.952;2023-02-01T09:13:47;98569.75;;;6.66;85.04
18988;BME280;5494;51.796;10.952;2023-02-01T09:16:16;98581.47;;;6.75;85.01
18988;BME280;5494;51.796;10.952;2023-02-01T09:18:44;98559.13;;;6.74;84.28
18988;BME280;5494;51.796;10.952;2023-02-01T09:21:28;98588.03;;;6.62;84.72
18988;BME280;5494;51.796;10.952;2023-02-01T09:23:55;98574.84;;;6.48;85.85
18988;BME280;5494;51.796;10.952;2023-02-01T09:26:23;98571.63;;;6.43;85.90
18988;BME280;5494;51.796;10.952;2023-02-01T09:29:00;98583.81;;;6.39;86.60
18988;BME280;5494;51.796;10.952;2023-02-01T09:31:28;98585.13;;;6.27;88.59
18988;BME280;5494;51.796;10.952;2023-02-01T09:33:56;98598.34;;;6.20;88.61
18988;BME280;5494;51.796;10.952;2023-02-01T09:36:25;98578.47;;;6.22;87.93
18988;BME280;5494;51.796;10.952;2023-02-01T09:38:56;98604.88;;;6.28;88.74
18988;BME280;5494;51.796;10.952;2023-02-01T09:41:38;98616.16;;;6.48;87.53
18988;BME280;5494;51.796;10.952;2023-02-01T09:44:29;98602.88;;;6.57;88.37
18988;BME280;5494;51.796;10.952;2023-02-01T09:47:13;98615.81;;;6.35;91.39
18988;BME280;5494;51.796;10.952;2023-02-01T09:49:51;98614.00;;;6.15;94.27
18988;BME280;5494;51.796;10.952;2023-02-01T09:52:28;98613.53;;;6.27;93.71
18988;BME280;5494;51.796;10.952;2023-02-01T09:55:04;98593.63;;;6.29;91.96
18988;BME280;5494;51.796;10.952;2023-02-01T09:57:51;98599.34;;;6.38;90.16
18988;BME280;5494;51.796;10.952;2023-02-01T10:00:29;98591.91;;;6.92;87.53
18988;BME280;5494;51.796;10.952;2023-02-01T10:02:57;98592.88;;;7.30;81.52
18988;BME280;5494;51.796;10.952;2023-02-01T10:08:43;98606.91;;;8.01;76.74
18988;BME280;5494;51.796;10.952;2023-02-01T10:11:33;98599.50;;;7.94;76.82
18988;BME280;5494;51.796;10.952;2023-02-01T10:14:44;98624.78;;;7.68;80.89
18988;BME280;5494;51.796;10.952;2023-02-01T10:17:34;98617.09;;;7.28;83.70
18988;BME280;5494;51.796;10.952;2023-02-01T10:20:16;98625.13;;;7.01;86.90
18988;BME280;5494;51.796;10.952;2023-02-01T10:23:01;98628.47;;;6.83;89.12
18988;BME280;5494;51.796;10.952;2023-02-01T10:25:55;98631.66;;;6.90;88.58
18988;BME280;5494;51.796;10.952;2023-02-01T10:28:25;98619.16;;;6.79;86.04
18988;BME280;5494;51.796;10.952;2023-02-01T10:30:57;98614.66;;;6.84;85.01
18988;BME280;5494;51.796;10.952;2023-02-01T10:33:35;98614.84;;;7.00;82.91
18988;BME280;5494;51.796;10.952;2023-02-01T10:36:14;98606.25;;;6.99;81.71
18988;BME280;5494;51.796;10.952;2023-02-01T10:38:44;98598.84;;;7.51;79.15
18988;BME280;5494;51.796;10.952;2023-02-01T10:41:15;98595.47;;;7.10;81.22
18988;BME280;5494;51.796;10.952;2023-02-01T10:43:48;98571.56;;;7.25;79.65
18988;BME280;5494;51.796;10.952;2023-02-01T10:46:17;98580.28;;;7.23;79.00
18988;BME280;5494;51.796;10.952;2023-02-01T10:48:48;98597.06;;;7.33;78.34
18988;BME280;5494;51.796;10.952;2023-02-01T10:51:22;98567.59;;;7.37;76.65
18988;BME280;5494;51.796;10.952;2023-02-01T10:53:57;98596.66;;;7.42;77.22
18988;BME280;5494;51.796;10.952;2023-02-01T10:56:28;98590.06;;;7.35;77.30
18988;BME280;5494;51.796;10.952;2023-02-01T10:59:02;98590.59;;;7.23;76.64
18988;BME280;5494;51.796;10.952;2023-02-01T11:01:37;98601.13;;;7.38;76.60
18988;BME280;5494;51.796;10.952;2023-02-01T11:04:11;98592.31;;;7.42;76.03
18988;BME280;5494;51.796;10.952;2023-02-01T11:06:42;98587.31;;;7.58;74.49
18988;BME280;5494;51.796;10.952;2023-02-01T11:09:19;98589.34;;;7.70;74.01
18988;BME280;5494;51.796;10.952;2023-02-01T11:11:59;98581.16;;;7.61;74.23
18988;BME280;5494;51.796;10.952;2023-02-01T11:14:38;98593.47;;;7.74;73.91
18988;BME280;5494;51.796;10.952;2023-02-01T11:17:24;98577.97;;;7.74;72.82
18988;BME280;5494;51.796;10.952;2023-02-01T11:19:59;98594.59;;;7.87;70.93
18988;BME280;5494;51.796;10.952;2023-02-01T11:22:28;98562.34;;;7.95;70.72
18988;BME280;5494;51.796;10.952;2023-02-01T11:24:58;98576.47;;;8.06;69.86
18988;BME280;5494;51.796;10.952;2023-02-01T11:27:27;98580.38;;;8.15;68.93
18988;BME280;5494;51.796;10.952;2023-02-01T11:29:59;98573.88;;;8.06;67.04
18988;BME280;5494;51.796;10.952;2023-02-01T11:32:30;98580.25;;;7.99;66.78
18988;BME280;5494;51.796;10.952;2023-02-01T11:35:04;98578.50;;;8.00;66.63
18988;BME280;5494;51.796;10.952;2023-02-01T11:37:37;98548.13;;;8.03;66.96
18988;BME280;5494;51.796;10.952;2023-02-01T11:40:26;98571.56;;;7.63;67.64
18988;BME280;5494;51.796;10.952;2023-02-01T11:42:57;98573.19;;;7.65;69.12
18988;BME280;5494;51.796;10.952;2023-02-01T11:45:28;98573.31;;;7.62;69.59
18988;BME280;5494;51.796;10.952;2023-02-01T11:47:58;98542.84;;;7.69;70.19
18988;BME280;5494;51.796;10.952;2023-02-01T11:50:38;98565.50;;;7.64;69.94
18988;BME280;5494;51.796;10.952;2023-02-01T11:53:25;98567.25;;;7.63;70.06
18988;BME280;5494;51.796;10.952;2023-02-01T11:56:11;98537.81;;;7.47;69.75
18988;BME280;5494;51.796;10.952;2023-02-01T11:59:08;98562.06;;;7.63;69.36
18988;BME280;5494;51.796;10.952;2023-02-01T12:02:15;98563.25;;;7.56;70.29
18988;BME280;5494;51.796;10.952;2023-02-01T12:05:18;98561.44;;;7.58;69.06
18988;BME280;5494;51.796;10.952;2023-02-01T12:08:24;98560.44;;;7.42;69.82
18988;BME280;5494;51.796;10.952;2023-02-01T12:11:24;98565.63;;;7.42;69.45
18988;BME280;5494;51.796;10.952;2023-02-01T12:14:10;98562.13;;;7.43;69.78
18988;BME280;5494;51.796;10.952;2023-02-01T12:17:01;98573.16;;;7.28;70.80
18988;BME280;5494;51.796;10.952;2023-02-01T12:20:06;98542.47;;;7.20;69.95
18988;BME280;5494;51.796;10.952;2023-02-01T12:22:53;98503.41;;;7.07;69.90
18988;BME280;5494;51.796;10.952;2023-02-01T12:25:39;98516.88;;;7.14;70.08
18988;BME280;5494;51.796;10.952;2023-02-01T12:28:38;98513.75;;;7.07;71.61
18988;BME280;5494;51.796;10.952;2023-02-01T12:31:20;98514.38;;;7.12;71.94
18988;BME280;5494;51.796;10.952;2023-02-01T12:34:29;98513.47;;;7.13;73.13
18988;BME280;5494;51.796;10.952;2023-02-01T12:37:13;98504.69;;;7.18;74.40
18988;BME280;5494;51.796;10.952;2023-02-01T12:39:59;98495.25;;;7.17;76.46
18988;BME280;5494;51.796;10.952;2023-02-01T12:42:37;98498.84;;;7.12;79.83
18988;BME280;5494;51.796;10.952;2023-02-01T12:45:15;98488.28;;;7.19;80.08
18988;BME280;5494;51.796;10.952;2023-02-01T12:47:51;98476.38;;;7.15;80.33
18988;BME280;5494;51.796;10.952;2023-02-01T12:50:26;98470.59;;;7.09;80.41
18988;BME280;5494;51.796;10.952;2023-02-01T12:53:12;98463.50;;;6.94;81.09
18988;BME280;5494;51.796;10.952;2023-02-01T12:55:51;98459.88;;;6.98;81.74
18988;BME280;5494;51.796;10.952;2023-02-01T12:58:27;98441.44;;;7.06;80.09
18988;BME280;5494;51.796;10.952;2023-02-01T13:01:03;98446.00;;;7.01;79.60
18988;BME280;5494;51.796;10.952;2023-02-01T13:03:39;98440.53;;;7.07;79.45
18988;BME280;5494;51.796;10.952;2023-02-01T13:06:16;98429.47;;;7.05;80.29
18988;BME280;5494;51.796;10.952;2023-02-01T13:08:53;98444.75;;;7.09;79.99
18988;BME280;5494;51.796;10.952;2023-02-01T13:11:29;98432.16;;;7.21;79.75
18988;BME280;5494;51.796;10.952;2023-02-01T13:14:07;98427.69;;;7.24;79.45
18988;BME280;5494;51.796;10.952;2023-02-01T13:16:44;98421.97;;;7.18;80.38
18988;BME280;5494;51.796;10.952;2023-02-01T13:19:17;98409.03;;;6.99;80.88
18988;BME280;5494;51.796;10.952;2023-02-01T13:21:56;98414.00;;;7.03;80.72
18988;BME280;5494;51.796;10.952;2023-02-01T13:24:36;98414.56;;;7.10;81.03
18988;BME280;5494;51.796;10.952;2023-02-01T13:27:10;98420.97;;;7.20;80.51
18988;BME280;5494;51.796;10.952;2023-02-01T13:29:50;98415.53;;;7.26;78.29
18988;BME280;5494;51.796;10.952;2023-02-01T13:32:49;98405.91;;;7.30;79.81
18988;BME280;5494;51.796;10.952;2023-02-01T13:36:04;98385.63;;;7.21;82.55
18988;BME280;5494;51.796;10.952;2023-02-01T13:39:23;98387.69;;;6.95;87.30
18988;BME280;5494;51.796;10.952;2023-02-01T13:41:58;98394.09;;;6.87;89.86
18988;BME280;5494;51.796;10.952;2023-02-01T13:44:31;98390.94;;;6.80;90.52
18988;BME280;5494;51.796;10.952;2023-02-01T13:47:13;98366.38;;;6.71;93.38
18988;BME280;5494;51.796;10.952;2023-02-01T13:49:44;98372.59;;;6.67;93.37
18988;BME280;5494;51.796;10.952;2023-02-01T13:52:27;98389.13;;;6.63;95.07
18988;BME280;5494;51.796;10.952;2023-02-01T13:55:13;98378.75;;;6.45;97.07